Time;durP1;ratioP1;P1;durP2;ratioP2;P2;SDS_P1;SDS_P2;PMS_P1;PMS_P2;Temp;Humidity;BMP_temperature;BMP_pressure;BME280_temperature;BME280_humidity;BME280_pressure;Samples;Min_cycle;Max_cycle;Signal;HPM_P1;HPM_P2
2023/11/22 00:01:03;;;;;;;;;;;;;;;21.60;28.90;97322.94;5020383;28;1365;-74
2023/11/22 00:03:28;;;;;;;;;;;;;;;21.47;28.72;97319.41;5003700;28;1898;-74
2023/11/22 00:05:54;;;;;;;;;;;;;;;21.33;28.91;97326.38;5020519;28;1439;-74
2023/11/22 00:08:19;;;;;;;;;;;;;;;21.03;29.22;97324.97;5037731;28;1361;-74
2023/11/22 00:10:45;;;;;;;;;;;;;;;20.88;29.50;97321.06;5037040;28;1519;-75
2023/11/22 00:13:11;;;;;;;;;;;;;;;21.17;29.27;97318.03;5035567;28;1625;-74
2023/11/22 00:15:37;;;;;;;;;;;;;;;20.98;29.69;97311.41;5019444;28;1600;-74
2023/11/22 00:18:03;;;;;;;;;;;;;;;21.21;29.34;97313.84;5019211;28;1413;-74
2023/11/22 00:20:29;;;;;;;;;;;;;;;21.34;28.95;97305.31;5019426;28;1513;-73
2023/11/22 00:22:54;;;;;;;;;;;;;;;21.19;29.31;97316.34;5019136;28;1390;-74
2023/11/22 00:25:20;;;;;;;;;;;;;;;21.43;28.67;97307.44;5035628;28;1983;-74
2023/11/22 00:27:46;;;;;;;;;;;;;;;20.99;29.24;97307.38;5035245;28;1571;-74
2023/11/22 00:30:12;;;;;;;;;;;;;;;20.86;29.46;97309.44;5035681;28;1934;-73
2023/11/22 00:32:40;;;;;;;;;;;;;;;20.94;29.34;97313.59;5019120;28;1593;-74
2023/11/22 00:35:06;;;;;;;;;;;;;;;21.15;29.43;97293.03;5002702;28;1703;-74
2023/11/22 00:37:31;;;;;;;;;;;;;;;21.16;29.27;97294.63;5018896;28;1551;-74
2023/11/22 00:39:59;;;;;;;;;;;;;;;21.58;28.67;97302.81;5018399;28;1464;-74
2023/11/22 00:42:24;;;;;;;;;;;;;;;21.26;28.94;97292.66;5018873;28;1634;-74
2023/11/22 00:44:50;;;;;;;;;;;;;;;21.49;28.63;97294.25;5036779;28;1989;-74
2023/11/22 00:47:16;;;;;;;;;;;;;;;21.45;28.32;97285.09;5019805;28;1365;-74
2023/11/22 00:49:42;;;;;;;;;;;;;;;21.40;28.72;97294.19;5019990;28;1422;-74
2023/11/22 00:52:08;;;;;;;;;;;;;;;21.27;28.39;97283.69;5019868;28;1404;-74
2023/11/22 00:54:34;;;;;;;;;;;;;;;21.34;28.68;97282.66;5019892;28;1582;-74
2023/11/22 00:57:00;;;;;;;;;;;;;;;21.05;29.21;97277.25;5003427;28;1400;-74
2023/11/22 00:59:26;;;;;;;;;;;;;;;21.42;28.73;97274.72;5019517;28;1528;-74
2023/11/22 01:01:52;;;;;;;;;;;;;;;21.38;28.96;97282.56;5036364;28;1424;-74
2023/11/22 01:04:17;;;;;;;;;;;;;;;21.56;28.40;97288.34;5002935;28;2328;-74
2023/11/22 01:06:43;;;;;;;;;;;;;;;21.20;28.85;97286.00;5019419;28;1649;-74
2023/11/22 01:09:13;;;;;;;;;;;;;;;21.30;28.49;97282.81;5009308;28;1405;-74
2023/11/22 01:11:39;;;;;;;;;;;;;;;21.33;28.23;97281.88;5003173;28;1375;-74
2023/11/22 01:14:05;;;;;;;;;;;;;;;20.93;28.62;97269.59;5019738;28;1400;-75
2023/11/22 01:16:30;;;;;;;;;;;;;;;20.54;29.87;97283.06;5037111;28;1423;-74
2023/11/22 01:18:56;;;;;;;;;;;;;;;21.37;28.68;97281.75;5002833;28;1515;-74
2023/11/22 01:21:21;;;;;;;;;;;;;;;21.57;28.46;97285.03;5036863;28;1524;-74
2023/11/22 01:23:47;;;;;;;;;;;;;;;21.46;28.52;97273.34;5018038;28;1995;-74
2023/11/22 01:26:13;;;;;;;;;;;;;;;21.30;28.52;97260.19;5019344;28;1539;-74
2023/11/22 01:28:44;;;;;;;;;;;;;;;21.39;28.59;97261.47;5023597;28;1435;-74
2023/11/22 01:31:10;;;;;;;;;;;;;;;21.46;28.09;97261.22;5035490;28;1648;-74
2023/11/22 01:33:37;;;;;;;;;;;;;;;21.31;28.46;97256.09;5014300;28;1444;-74
2023/11/22 01:36:02;;;;;;;;;;;;;;;21.33;28.06;97245.09;4998259;28;1474;-74
2023/11/22 01:38:28;;;;;;;;;;;;;;;21.05;28.74;97257.44;5012768;28;1428;-74
2023/11/22 01:40:53;;;;;;;;;;;;;;;21.16;28.89;97249.34;4997886;28;1529;-74
2023/11/22 01:43:19;;;;;;;;;;;;;;;21.26;28.60;97248.19;4994468;28;1572;-74
2023/11/22 01:45:45;;;;;;;;;;;;;;;21.41;28.40;97247.69;4994105;28;1933;-74
2023/11/22 01:48:10;;;;;;;;;;;;;;;21.40;28.28;97246.06;5015980;28;1490;-74
2023/11/22 01:50:40;;;;;;;;;;;;;;;21.39;28.21;97250.16;5014338;28;1611;-74
2023/11/22 01:53:10;;;;;;;;;;;;;;;21.25;28.23;97246.59;4995869;28;1563;-74
2023/11/22 01:55:35;;;;;;;;;;;;;;;20.89;28.46;97249.16;4994716;28;1581;-74
2023/11/22 01:58:02;;;;;;;;;;;;;;;20.98;28.96;97246.38;4980700;28;1643;-75
2023/11/22 02:00:27;;;;;;;;;;;;;;;20.81;29.15;97245.78;4978644;28;1373;-74
2023/11/22 02:02:53;;;;;;;;;;;;;;;21.19;28.53;97245.63;4993938;28;1744;-74
2023/11/22 02:05:18;;;;;;;;;;;;;;;21.23;28.59;97237.75;4994177;28;1910;-75
2023/11/22 02:07:44;;;;;;;;;;;;;;;21.34;28.28;97243.06;4977008;28;1300;-74
2023/11/22 02:10:10;;;;;;;;;;;;;;;21.43;28.19;97239.50;4959305;28;1479;-74
2023/11/22 02:12:35;;;;;;;;;;;;;;;21.17;28.67;97236.78;4960449;28;1548;-74
2023/11/22 02:15:02;;;;;;;;;;;;;;;21.05;28.47;97243.31;4993844;28;1386;-74
2023/11/22 02:17:29;;;;;;;;;;;;;;;21.18;28.18;97246.06;4992256;28;1433;-74
2023/11/22 02:19:55;;;;;;;;;;;;;;;20.93;28.83;97241.31;4992556;28;1493;-74
2023/11/22 02:22:21;;;;;;;;;;;;;;;21.11;29.04;97230.16;4972021;28;1623;-75
2023/11/22 02:24:47;;;;;;;;;;;;;;;21.19;28.46;97225.00;4986715;28;1907;-74
2023/11/22 02:27:12;;;;;;;;;;;;;;;21.40;28.34;97234.75;4993882;28;1522;-74
2023/11/22 02:29:38;;;;;;;;;;;;;;;21.52;28.13;97231.84;4961798;28;1439;-74
2023/11/22 02:32:04;;;;;;;;;;;;;;;21.66;28.14;97233.34;4976476;28;1425;-74
2023/11/22 02:34:31;;;;;;;;;;;;;;;21.51;28.09;97224.63;4991714;28;1456;-74
2023/11/22 02:36:57;;;;;;;;;;;;;;;21.28;28.37;97227.91;4992419;28;1568;-74
2023/11/22 02:39:25;;;;;;;;;;;;;;;21.21;28.10;97220.47;4994882;28;1884;-74
2023/11/22 02:41:50;;;;;;;;;;;;;;;21.18;28.39;97214.94;5012673;28;1495;-73
2023/11/22 02:44:17;;;;;;;;;;;;;;;21.12;28.52;97222.44;4996844;28;1979;-74
2023/11/22 02:46:43;;;;;;;;;;;;;;;21.35;28.43;97222.03;4981139;28;1372;-74
2023/11/22 02:49:09;;;;;;;;;;;;;;;21.52;27.82;97231.84;4996724;28;1330;-75
2023/11/22 02:51:36;;;;;;;;;;;;;;;21.24;28.13;97224.41;5000163;28;1667;-75
2023/11/22 02:54:04;;;;;;;;;;;;;;;21.04;28.57;97224.75;5001479;28;1514;-74
2023/11/22 02:56:30;;;;;;;;;;;;;;;21.17;28.75;97228.31;5033140;28;1541;-73
2023/11/22 02:58:56;;;;;;;;;;;;;;;21.27;28.36;97229.94;5032852;28;2083;-74
2023/11/22 03:01:21;;;;;;;;;;;;;;;21.15;28.67;97239.31;5032990;28;1322;-74
2023/11/22 03:03:47;;;;;;;;;;;;;;;21.12;28.90;97240.22;5016391;28;1918;-74
2023/11/22 03:06:12;;;;;;;;;;;;;;;21.24;28.59;97245.03;5016200;28;1607;-74
2023/11/22 03:08:38;;;;;;;;;;;;;;;21.03;28.51;97242.97;5016288;28;1524;-74
2023/11/22 03:11:03;;;;;;;;;;;;;;;20.87;28.75;97248.81;5033088;28;1420;-74
2023/11/22 03:13:29;;;;;;;;;;;;;;;21.03;28.91;97242.97;5016343;28;1388;-74
2023/11/22 03:15:55;;;;;;;;;;;;;;;21.16;28.56;97243.69;5032927;28;1385;-74
2023/11/22 03:18:21;;;;;;;;;;;;;;;21.28;28.17;97245.66;5016535;28;1471;-74
2023/11/22 03:20:46;;;;;;;;;;;;;;;21.37;28.20;97249.84;5016193;28;1655;-74
2023/11/22 03:23:12;;;;;;;;;;;;;;;21.14;28.47;97249.03;5015756;28;1346;-74
2023/11/22 03:25:38;;;;;;;;;;;;;;;21.31;28.24;97244.78;5000055;28;1982;-74
2023/11/22 03:28:03;;;;;;;;;;;;;;;21.35;27.87;97260.81;5032413;28;1475;-74
2023/11/22 03:30:29;;;;;;;;;;;;;;;21.32;28.10;97245.56;5034250;28;1377;-74
2023/11/22 03:32:55;;;;;;;;;;;;;;;21.13;28.02;97253.09;5035391;28;1282;-74
2023/11/22 03:35:21;;;;;;;;;;;;;;;20.97;28.28;97258.94;5017228;28;1472;-74
2023/11/22 03:37:46;;;;;;;;;;;;;;;21.05;28.58;97261.06;5034781;28;1389;-74
2023/11/22 03:40:13;;;;;;;;;;;;;;;21.38;28.13;97254.25;5033444;28;1348;-74
2023/11/22 03:42:39;;;;;;;;;;;;;;;21.43;27.90;97259.31;5033498;28;1387;-74
2023/11/22 03:45:05;;;;;;;;;;;;;;;21.27;28.38;97261.06;5034708;28;1915;-74
2023/11/22 03:47:32;;;;;;;;;;;;;;;21.41;27.56;97259.00;5017155;28;1417;-74
2023/11/22 03:49:59;;;;;;;;;;;;;;;21.04;28.04;97253.84;5034625;28;1496;-74
2023/11/22 03:52:25;;;;;;;;;;;;;;;21.06;27.77;97251.31;5002128;28;1382;-74
2023/11/22 03:54:50;;;;;;;;;;;;;;;20.97;28.27;97256.13;5037077;28;1385;-74
2023/11/22 03:57:16;;;;;;;;;;;;;;;21.18;28.36;97258.16;5020906;28;1486;-74
2023/11/22 03:59:43;;;;;;;;;;;;;;;21.36;27.89;97256.75;5038491;28;1372;-74
2023/11/22 04:02:08;;;;;;;;;;;;;;;21.20;28.00;97254.91;5020785;28;1368;-74
2023/11/22 04:04:34;;;;;;;;;;;;;;;21.42;27.72;97258.53;5020440;28;1914;-75
2023/11/22 04:07:00;;;;;;;;;;;;;;;21.04;28.18;97261.53;5020161;28;1604;-74
2023/11/22 04:09:25;;;;;;;;;;;;;;;21.37;27.97;97270.44;5038825;28;1389;-73
2023/11/22 04:11:51;;;;;;;;;;;;;;;20.99;28.22;97259.28;5019948;28;1553;-74
2023/11/22 04:14:20;;;;;;;;;;;;;;;20.81;28.75;97263.53;5020605;28;1407;-74
2023/11/22 04:16:45;;;;;;;;;;;;;;;21.21;28.20;97256.47;5020490;28;1472;-74
2023/11/22 04:19:11;;;;;;;;;;;;;;;21.33;27.99;97261.28;5035540;28;1564;-75
2023/11/22 04:21:36;;;;;;;;;;;;;;;21.25;27.84;97269.25;5035573;28;1480;-74
2023/11/22 04:24:02;;;;;;;;;;;;;;;21.29;28.15;97267.03;5017643;28;1906;-73
2023/11/22 04:26:27;;;;;;;;;;;;;;;21.29;27.50;97264.22;5018800;28;1719;-74
2023/11/22 04:28:53;;;;;;;;;;;;;;;21.24;27.77;97269.69;4976535;28;1653;-74
2023/11/22 04:31:18;;;;;;;;;;;;;;;20.80;28.29;97273.25;4976555;28;1665;-74
2023/11/22 04:33:44;;;;;;;;;;;;;;;21.06;28.40;97273.94;4976054;28;1582;-74
2023/11/22 04:36:09;;;;;;;;;;;;;;;21.36;27.71;97273.75;4977007;28;1690;-74
2023/11/22 04:38:35;;;;;;;;;;;;;;;21.43;27.73;97268.59;4976172;28;1487;-75
2023/11/22 04:41:00;;;;;;;;;;;;;;;21.35;27.88;97266.47;4976610;28;1734;-74
2023/11/22 04:43:26;;;;;;;;;;;;;;;21.05;27.85;97272.38;4960285;28;1805;-73
2023/11/22 04:45:52;;;;;;;;;;;;;;;21.37;27.27;97269.66;4976273;28;1914;-75
2023/11/22 04:48:17;;;;;;;;;;;;;;;20.96;27.79;97285.66;4960549;28;1936;-74
2023/11/22 04:50:43;;;;;;;;;;;;;;;20.95;28.37;97269.94;4961816;28;1863;-74
2023/11/22 04:53:09;;;;;;;;;;;;;;;21.05;28.07;97283.69;4957287;28;1783;-74
2023/11/22 04:55:35;;;;;;;;;;;;;;;21.26;27.97;97279.28;4951632;29;1737;-74
2023/11/22 04:58:00;;;;;;;;;;;;;;;21.40;27.57;97280.03;4930367;29;1594;-73
2023/11/22 05:00:26;;;;;;;;;;;;;;;21.29;27.76;97286.84;4959610;28;1688;-73
2023/11/22 05:02:51;;;;;;;;;;;;;;;21.14;27.92;97297.13;4975023;28;1516;-74
2023/11/22 05:05:17;;;;;;;;;;;;;;;21.06;27.90;97301.44;4989053;28;2063;-74
2023/11/22 05:07:44;;;;;;;;;;;;;;;21.03;28.14;97297.47;4995524;28;1796;-74
2023/11/22 05:10:10;;;;;;;;;;;;;;;21.02;28.21;97303.59;4979558;28;1294;-74
2023/11/22 05:12:35;;;;;;;;;;;;;;;21.25;28.04;97303.19;4995692;28;1084;-74
2023/11/22 05:15:04;;;;;;;;;;;;;;;21.36;27.98;97293.56;4995567;28;1425;-74
2023/11/22 05:17:29;;;;;;;;;;;;;;;21.22;28.34;97298.44;4995892;28;1025;-74
2023/11/22 05:19:55;;;;;;;;;;;;;;;21.18;28.13;97303.44;4995689;28;1015;-74
2023/11/22 05:22:21;;;;;;;;;;;;;;;21.16;28.19;97310.81;4979233;28;985;-74
2023/11/22 05:24:47;;;;;;;;;;;;;;;21.11;28.27;97315.00;4995619;28;1910;-74
2023/11/22 05:27:13;;;;;;;;;;;;;;;21.01;28.32;97327.50;4966751;28;1060;-74
2023/11/22 05:29:38;;;;;;;;;;;;;;;21.12;28.22;97322.25;4959937;28;1091;-74
2023/11/22 05:32:04;;;;;;;;;;;;;;;21.12;28.58;97333.56;4975868;28;980;-73
2023/11/22 05:34:29;;;;;;;;;;;;;;;21.28;28.30;97329.75;4975664;28;1089;-75
2023/11/22 05:36:55;;;;;;;;;;;;;;;21.25;27.99;97331.47;4976044;28;992;-74
2023/11/22 05:39:22;;;;;;;;;;;;;;;21.31;27.95;97332.50;4975155;28;1153;-75
2023/11/22 05:41:48;;;;;;;;;;;;;;;21.44;27.99;97335.25;4959145;28;1354;-74
2023/11/22 05:44:14;;;;;;;;;;;;;;;21.42;27.65;97336.97;4974929;28;1946;-74
2023/11/22 05:46:39;;;;;;;;;;;;;;;21.41;27.46;97335.41;4959115;28;1386;-75
2023/11/22 05:49:05;;;;;;;;;;;;;;;20.99;28.46;97344.13;4936760;29;1295;-75
2023/11/22 05:51:31;;;;;;;;;;;;;;;21.04;28.51;97352.03;4920618;29;1354;-74
2023/11/22 05:53:56;;;;;;;;;;;;;;;21.20;28.00;97346.22;4936506;29;1267;-73
2023/11/22 05:56:22;;;;;;;;;;;;;;;21.20;28.26;97357.53;4936404;29;1303;-74
2023/11/22 05:58:48;;;;;;;;;;;;;;;21.45;27.57;97361.53;4936566;29;1271;-74
2023/11/22 06:01:13;;;;;;;;;;;;;;;21.05;28.10;97379.06;4936653;29;1235;-74
2023/11/22 06:03:39;;;;;;;;;;;;;;;20.80;28.60;97379.91;4926081;28;1903;-73
2023/11/22 06:06:05;;;;;;;;;;;;;;;20.92;28.34;97393.22;4994486;28;1367;-74
2023/11/22 06:08:31;;;;;;;;;;;;;;;21.13;28.27;97391.72;4993942;28;1250;-74
2023/11/22 06:10:57;;;;;;;;;;;;;;;21.19;28.40;97406.88;4994157;28;1289;-74
2023/11/22 06:13:23;;;;;;;;;;;;;;;21.47;27.83;97404.31;4994330;28;1290;-74
2023/11/22 06:15:49;;;;;;;;;;;;;;;21.36;28.05;97404.69;4994058;28;1299;-74
2023/11/22 06:18:15;;;;;;;;;;;;;;;21.22;28.16;97405.94;4977893;28;1319;-74
2023/11/22 06:20:41;;;;;;;;;;;;;;;21.32;28.09;97404.81;5005124;28;1349;-73
2023/11/22 06:23:06;;;;;;;;;;;;;;;21.24;28.03;97402.66;5031071;28;1355;-74
2023/11/22 06:25:32;;;;;;;;;;;;;;;21.16;27.98;97404.94;5013494;28;1980;-74
2023/11/22 06:27:57;;;;;;;;;;;;;;;21.10;28.65;97398.28;4997196;28;1318;-74
2023/11/22 06:30:24;;;;;;;;;;;;;;;21.12;28.38;97401.44;4980705;28;1351;-74
2023/11/22 06:32:53;;;;;;;;;;;;;;;21.43;28.16;97392.34;4981175;28;1558;-74
2023/11/22 06:35:19;;;;;;;;;;;;;;;21.37;28.31;97405.50;5011006;28;1245;-74
2023/11/22 06:37:44;;;;;;;;;;;;;;;21.29;28.38;97408.53;4997207;28;1258;-74
2023/11/22 06:40:13;;;;;;;;;;;;;;;21.34;27.93;97418.50;4974238;28;1242;-74
2023/11/22 06:42:39;;;;;;;;;;;;;;;21.40;27.58;97421.53;4974962;28;952;-75
2023/11/22 06:45:06;;;;;;;;;;;;;;;21.33;27.59;97423.38;4974552;28;1914;-73
2023/11/22 06:47:32;;;;;;;;;;;;;;;21.10;28.43;97425.78;4942205;28;1241;-74
2023/11/22 06:49:58;;;;;;;;;;;;;;;21.16;28.48;97433.25;4958706;28;1018;-74
2023/11/22 06:52:23;;;;;;;;;;;;;;;21.30;28.29;97423.53;4958318;28;1197;-74
2023/11/22 06:54:49;;;;;;;;;;;;;;;21.26;28.44;97422.81;4958675;28;1163;-74
2023/11/22 06:57:15;;;;;;;;;;;;;;;21.54;28.16;97432.38;4942425;28;1305;-74
2023/11/22 06:59:40;;;;;;;;;;;;;;;21.35;28.26;97433.44;4958572;28;946;-74
2023/11/22 07:02:07;;;;;;;;;;;;;;;21.09;28.49;97436.31;4974434;28;982;-74
2023/11/22 07:04:33;;;;;;;;;;;;;;;21.24;28.05;97437.44;4958322;28;1910;-74
2023/11/22 07:06:58;;;;;;;;;;;;;;;21.20;27.98;97442.41;4958125;28;1347;-74
2023/11/22 07:09:24;;;;;;;;;;;;;;;20.90;29.04;97440.19;4993511;28;1253;-74
2023/11/22 07:11:51;;;;;;;;;;;;;;;20.87;29.56;97443.91;4977793;28;1015;-74
2023/11/22 07:14:17;;;;;;;;;;;;;;;21.31;28.77;97442.84;4961870;28;1120;-74
2023/11/22 07:16:42;;;;;;;;;;;;;;;21.28;28.79;97449.38;4980418;28;986;-74
2023/11/22 07:19:08;;;;;;;;;;;;;;;21.10;28.76;97454.09;4997104;28;961;-74
2023/11/22 07:21:37;;;;;;;;;;;;;;;21.04;28.75;97462.34;5013585;28;973;-74
2023/11/22 07:24:03;;;;;;;;;;;;;;;21.11;28.66;97456.44;4983845;28;1902;-73
2023/11/22 07:26:30;;;;;;;;;;;;;;;21.21;28.53;97460.16;5017037;28;1015;-74
2023/11/22 07:28:55;;;;;;;;;;;;;;;20.86;29.41;97453.66;5036882;28;1036;-73
2023/11/22 07:31:22;;;;;;;;;;;;;;;21.12;29.15;97452.38;5037294;28;864;-74
2023/11/22 07:33:48;;;;;;;;;;;;;;;21.14;29.31;97457.56;5020439;28;1011;-74
2023/11/22 07:36:17;;;;;;;;;;;;;;;21.24;28.95;97448.75;5020614;28;968;-74
2023/11/22 07:38:45;;;;;;;;;;;;;;;21.27;29.17;97464.78;5004536;28;1047;-74
2023/11/22 07:41:11;;;;;;;;;;;;;;;21.05;29.32;97463.94;5001699;28;891;-74
2023/11/22 07:43:36;;;;;;;;;;;;;;;20.87;29.15;97469.34;4998465;28;907;-74
2023/11/22 07:46:14;;;;;;;;;;;;;;;21.05;28.75;97464.72;4998380;28;1991;-74
2023/11/22 07:48:43;;;;;;;;;;;;;;;21.09;29.16;97470.25;4983106;28;1055;-74
2023/11/22 07:51:08;;;;;;;;;;;;;;;21.29;29.26;97476.44;4982774;28;986;-74
2023/11/22 07:53:34;;;;;;;;;;;;;;;21.28;29.03;97474.84;4982343;28;959;-74
2023/11/22 07:56:04;;;;;;;;;;;;;;;20.92;29.80;97466.75;4981900;28;1062;-74
2023/11/22 07:58:32;;;;;;;;;;;;;;;21.06;29.19;97468.34;4998189;28;990;-74
2023/11/22 08:00:59;;;;;;;;;;;;;;;21.11;28.92;97472.63;4998688;28;946;-74
2023/11/22 08:03:25;;;;;;;;;;;;;;;20.91;29.21;97478.53;5000017;28;1024;-74
2023/11/22 08:05:53;;;;;;;;;;;;;;;20.98;29.15;97472.63;5016369;28;1919;-74
2023/11/22 08:08:19;;;;;;;;;;;;;;;20.63;30.16;97478.19;5016724;28;1005;-73
2023/11/22 08:10:47;;;;;;;;;;;;;;;21.19;29.17;97480.44;5016480;28;960;-74
2023/11/22 08:13:13;;;;;;;;;;;;;;;21.33;28.93;97482.81;4977168;28;960;-74
2023/11/22 08:15:39;;;;;;;;;;;;;;;21.64;28.70;97487.03;4961216;28;1621;-74
2023/11/22 08:18:05;;;;;;;;;;;;;;;21.55;28.79;97491.38;4944998;28;1185;-74
2023/11/22 08:20:31;;;;;;;;;;;;;;;21.16;29.18;97475.69;4961116;28;950;-74
2023/11/22 08:22:57;;;;;;;;;;;;;;;21.27;28.91;97478.94;4945324;28;1254;-74
2023/11/22 08:25:22;;;;;;;;;;;;;;;21.17;28.95;97485.75;4957344;28;1914;-74
2023/11/22 08:27:48;;;;;;;;;;;;;;;21.05;29.18;97481.69;4941405;29;909;-74
2023/11/22 08:30:15;;;;;;;;;;;;;;;20.98;30.02;97495.25;4926030;29;990;-73
2023/11/22 08:32:44;;;;;;;;;;;;;;;21.15;29.33;97491.06;4942117;29;944;-74
2023/11/22 08:35:09;;;;;;;;;;;;;;;21.24;29.76;97490.38;4926148;29;954;-74
2023/11/22 08:37:37;;;;;;;;;;;;;;;21.42;29.53;97498.31;4922449;29;1284;-74
2023/11/22 08:40:04;;;;;;;;;;;;;;;21.33;29.34;97502.59;4936789;29;1245;-74
2023/11/22 08:42:30;;;;;;;;;;;;;;;21.19;29.48;97497.41;4938657;29;1156;-73
2023/11/22 08:44:55;;;;;;;;;;;;;;;21.30;29.10;97508.41;4922384;29;1915;-74
2023/11/22 08:47:21;;;;;;;;;;;;;;;21.03;29.66;97518.09;4938404;29;980;-73
2023/11/22 08:49:48;;;;;;;;;;;;;;;20.97;29.51;97514.25;4938207;29;1060;-74
2023/11/22 08:52:14;;;;;;;;;;;;;;;20.97;29.91;97516.31;4922371;29;1090;-74
2023/11/22 08:54:39;;;;;;;;;;;;;;;21.01;29.96;97514.94;4938157;29;1016;-74
2023/11/22 08:57:06;;;;;;;;;;;;;;;21.26;29.80;97508.50;4984866;28;1035;-74
2023/11/22 08:59:32;;;;;;;;;;;;;;;21.35;29.44;97502.19;4995965;28;1066;-74
2023/11/22 09:01:58;;;;;;;;;;;;;;;21.36;29.61;97497.31;4979724;28;1217;-74
2023/11/22 09:04:25;;;;;;;;;;;;;;;21.04;29.76;97507.63;4979528;28;2301;-74
2023/11/22 09:06:51;;;;;;;;;;;;;;;20.99;30.10;97505.34;4979608;28;1020;-74
2023/11/22 09:09:17;;;;;;;;;;;;;;;21.22;29.12;97512.69;4995770;28;932;-74
2023/11/22 09:11:42;;;;;;;;;;;;;;;21.23;29.47;97508.59;4992398;28;1246;-74
2023/11/22 09:14:10;;;;;;;;;;;;;;;21.31;28.98;97505.13;4998331;28;924;-74
2023/11/22 09:16:37;;;;;;;;;;;;;;;21.04;29.60;97514.06;4998245;28;924;-74
2023/11/22 09:19:03;;;;;;;;;;;;;;;21.21;29.89;97511.09;4996635;28;846;-75
2023/11/22 09:21:29;;;;;;;;;;;;;;;21.41;29.63;97513.72;4996930;28;1031;-74
2023/11/22 09:23:55;;;;;;;;;;;;;;;21.55;29.69;97524.53;4997973;28;1918;-74
2023/11/22 09:26:20;;;;;;;;;;;;;;;21.37;29.77;97521.53;4996867;28;887;-75
2023/11/22 09:28:46;;;;;;;;;;;;;;;21.49;29.69;97520.69;4997821;28;942;-71
2023/11/22 09:31:17;;;;;;;;;;;;;;;21.19;29.94;97528.53;4996693;28;920;-73
2023/11/22 09:33:43;;;;;;;;;;;;;;;21.19;29.82;97539.84;4999393;28;1020;-74
2023/11/22 09:36:08;;;;;;;;;;;;;;;21.12;30.12;97547.75;4998485;28;963;-73
2023/11/22 09:38:34;;;;;;;;;;;;;;;21.22;30.03;97555.91;5014714;28;977;-73
2023/11/22 09:41:00;;;;;;;;;;;;;;;21.40;29.74;97546.06;4998536;28;1144;-73
2023/11/22 09:43:26;;;;;;;;;;;;;;;21.35;29.85;97557.97;5014982;28;996;-73
2023/11/22 09:45:54;;;;;;;;;;;;;;;21.09;30.32;97552.31;5015007;28;1906;-72
2023/11/22 09:48:22;;;;;;;;;;;;;;;21.09;30.56;97557.97;5014984;28;1051;-73
2023/11/22 09:50:55;;;;;;;;;;;;;;;21.06;30.27;97553.19;4981705;28;1099;-72
2023/11/22 09:53:29;;;;;;;;;;;;;;;20.65;31.00;97543.53;5014549;28;1022;-72
2023/11/22 09:55:55;;;;;;;;;;;;;;;20.95;30.10;97558.41;5014636;28;975;-74
2023/11/22 09:58:21;;;;;;;;;;;;;;;20.72;30.48;97554.63;4998405;28;1143;-73
2023/11/22 10:00:46;;;;;;;;;;;;;;;20.92;30.15;97562.13;5014392;28;973;-72
2023/11/22 10:03:14;;;;;;;;;;;;;;;20.73;30.60;97555.44;4982096;28;1218;-73
2023/11/22 10:05:43;;;;;;;;;;;;;;;20.97;30.53;97553.88;5000579;28;1902;-73
2023/11/22 10:08:10;;;;;;;;;;;;;;;21.05;30.28;97554.44;4999337;28;893;-73
2023/11/22 10:10:40;;;;;;;;;;;;;;;20.96;30.87;97557.16;4999676;28;1218;-73
2023/11/22 10:13:05;;;;;;;;;;;;;;;21.01;30.72;97556.59;4999477;28;1115;-73
2023/11/22 10:15:31;;;;;;;;;;;;;;;21.07;30.37;97558.41;5015481;28;962;-75
2023/11/22 10:17:57;;;;;;;;;;;;;;;21.26;29.76;97567.91;5016967;28;1143;-73
2023/11/22 10:20:35;;;;;;;;;;;;;;;21.13;30.18;97578.41;5014905;28;839;-73
2023/11/22 10:23:01;;;;;;;;;;;;;;;20.81;30.58;97587.91;5016245;28;915;-74
2023/11/22 10:25:29;;;;;;;;;;;;;;;21.00;30.66;97586.13;5015120;28;1973;-74
2023/11/22 10:27:54;;;;;;;;;;;;;;;21.41;30.15;97587.28;5016502;28;955;-73
2023/11/22 10:30:20;;;;;;;;;;;;;;;21.38;30.28;97582.53;5015280;28;981;-74
2023/11/22 10:32:46;;;;;;;;;;;;;;;21.39;30.30;97584.09;5016049;28;917;-73
2023/11/22 10:35:14;;;;;;;;;;;;;;;21.30;30.36;97581.97;5015036;28;964;-73
2023/11/22 10:37:39;;;;;;;;;;;;;;;21.06;30.24;97573.00;4999307;28;1098;-74
2023/11/22 10:40:06;;;;;;;;;;;;;;;20.92;30.50;97576.25;4997933;28;1092;-74
2023/11/22 10:42:33;;;;;;;;;;;;;;;21.17;29.68;97575.50;5014001;28;1063;-73
2023/11/22 10:44:58;;;;;;;;;;;;;;;21.31;29.70;97584.34;5014951;28;1985;-74
2023/11/22 10:47:24;;;;;;;;;;;;;;;21.36;29.57;97585.03;5015076;28;909;-73
2023/11/22 10:49:50;;;;;;;;;;;;;;;21.22;30.58;97581.38;5015034;28;900;-73
2023/11/22 10:52:17;;;;;;;;;;;;;;;21.19;30.53;97576.63;5015027;28;880;-73
2023/11/22 10:54:44;;;;;;;;;;;;;;;21.13;30.33;97578.41;5015006;28;964;-73
2023/11/22 10:57:10;;;;;;;;;;;;;;;20.88;30.63;97584.88;5015865;28;896;-74
2023/11/22 10:59:36;;;;;;;;;;;;;;;20.78;30.96;97581.13;5013351;28;921;-74
2023/11/22 11:02:03;;;;;;;;;;;;;;;20.91;30.46;97583.16;5012729;28;1097;-73
2023/11/22 11:04:37;;;;;;;;;;;;;;;21.18;30.43;97589.16;5013309;28;1906;-74
2023/11/22 11:07:03;;;;;;;;;;;;;;;21.29;30.17;97598.13;4997117;28;1134;-73
2023/11/22 11:09:32;;;;;;;;;;;;;;;21.41;30.10;97593.75;4997156;28;954;-73
2023/11/22 11:11:58;;;;;;;;;;;;;;;21.24;30.42;97593.03;5013410;28;930;-74
2023/11/22 11:14:24;;;;;;;;;;;;;;;21.51;30.30;97608.81;5013294;28;1484;-73
2023/11/22 11:16:53;;;;;;;;;;;;;;;21.39;30.01;97606.75;4997267;28;921;-74
2023/11/22 11:19:22;;;;;;;;;;;;;;;21.31;30.17;97601.34;5013207;28;980;-73
2023/11/22 11:21:47;;;;;;;;;;;;;;;21.03;30.10;97610.66;4996860;28;936;-74
2023/11/22 11:24:14;;;;;;;;;;;;;;;21.23;29.97;97619.72;5013280;28;1965;-73
2023/11/22 11:26:39;;;;;;;;;;;;;;;21.06;30.25;97612.59;4996838;28;983;-74
2023/11/22 11:29:06;;;;;;;;;;;;;;;21.35;30.47;97606.06;4997140;28;1084;-74
2023/11/22 11:31:35;;;;;;;;;;;;;;;21.47;30.31;97610.94;4996047;28;1133;-73
2023/11/22 11:34:01;;;;;;;;;;;;;;;21.52;30.11;97610.38;5014585;28;779;-73
2023/11/22 11:36:33;;;;;;;;;;;;;;;21.36;30.51;97616.16;5015432;28;854;-73
2023/11/22 11:39:01;;;;;;;;;;;;;;;21.42;30.40;97608.69;5014132;28;879;-73
2023/11/22 11:41:30;;;;;;;;;;;;;;;21.33;30.26;97610.16;4998350;28;833;-73
2023/11/22 11:43:56;;;;;;;;;;;;;;;21.23;30.34;97611.25;4998854;28;1906;-73
2023/11/22 11:46:27;;;;;;;;;;;;;;;21.31;30.28;97618.31;4998003;28;783;-73
2023/11/22 11:48:53;;;;;;;;;;;;;;;21.07;30.71;97628.31;5012922;28;971;-73
2023/11/22 11:51:19;;;;;;;;;;;;;;;21.31;30.57;97629.63;5013361;28;824;-73
2023/11/22 11:53:46;;;;;;;;;;;;;;;21.29;30.73;97631.28;5012891;28;1269;-73
2023/11/22 11:56:11;;;;;;;;;;;;;;;21.33;30.86;97632.78;4996797;28;1491;-74
2023/11/22 11:58:37;;;;;;;;;;;;;;;21.38;30.91;97639.94;5013185;28;899;-74
2023/11/22 12:01:06;;;;;;;;;;;;;;;21.35;30.56;97640.03;5013402;28;926;-73
2023/11/22 12:03:32;;;;;;;;;;;;;;;21.15;30.59;97638.19;4996829;28;1020;-73
2023/11/22 12:05:58;;;;;;;;;;;;;;;21.05;30.92;97644.97;4996604;28;1979;-74
2023/11/22 12:08:24;;;;;;;;;;;;;;;21.02;31.10;97640.19;5013092;28;986;-74
2023/11/22 12:10:49;;;;;;;;;;;;;;;21.12;31.06;97643.94;4980562;28;1162;-73
2023/11/22 12:13:18;;;;;;;;;;;;;;;21.41;30.86;97643.91;4997479;28;1608;-74
2023/11/22 12:15:44;;;;;;;;;;;;;;;21.43;30.48;97642.19;5000743;28;927;-74
2023/11/22 12:18:11;;;;;;;;;;;;;;;21.24;30.94;97641.16;5000269;28;1143;-74
2023/11/22 12:20:37;;;;;;;;;;;;;;;20.97;31.02;97649.22;4980493;28;909;-74
2023/11/22 12:23:03;;;;;;;;;;;;;;;20.77;31.02;97653.03;4977474;28;978;-73
2023/11/22 12:25:29;;;;;;;;;;;;;;;21.12;30.17;97660.91;4977353;28;1910;-73
2023/11/22 12:27:55;;;;;;;;;;;;;;;20.96;30.94;97654.09;4977143;28;931;-74
2023/11/22 12:30:33;;;;;;;;;;;;;;;21.25;30.95;97653.25;4977051;28;939;-74
2023/11/22 12:33:17;;;;;;;;;;;;;;;21.38;30.78;97661.78;4977068;28;1032;-74
2023/11/22 12:35:44;;;;;;;;;;;;;;;21.57;30.25;97669.25;4977220;28;1033;-73
2023/11/22 12:38:09;;;;;;;;;;;;;;;21.33;30.94;97672.41;4960893;28;1234;-73
2023/11/22 12:40:35;;;;;;;;;;;;;;;21.31;30.46;97680.56;4976828;28;997;-74
2023/11/22 12:43:01;;;;;;;;;;;;;;;20.43;31.76;97672.56;4977251;28;1250;-73
2023/11/22 12:45:28;;;;;;;;;;;;;;;20.97;30.74;97680.34;4976947;28;2229;-74
2023/11/22 12:47:54;;;;;;;;;;;;;;;21.21;30.36;97678.03;4976793;28;906;-73
2023/11/22 12:50:37;;;;;;;;;;;;;;;21.14;31.30;97686.72;4977059;28;1087;-73
2023/11/22 12:53:12;;;;;;;;;;;;;;;21.36;30.90;97703.91;4957154;28;1451;-74
2023/11/22 12:55:42;;;;;;;;;;;;;;;21.29;31.14;97714.13;4941167;29;1047;-73